Jhelum Weather



Jhelum's Current Weather

Temprature 20.55o clear sky

clear sky

Rain: 0 %

Min Temprature20.55o
Max Temprature20.55o
Humidity24
Wind Speed0.49 m/h
Sun Rise06:19:36
Sun Set17:17:54
Current Time: 28-Oct-2020 07:48:29
Lat/Lon: 32.93, 73.73




Jhelum's Geo Location



Jhelum's Weather Forecast

Time Overall Temp Min Temp Max Temp Humidity Wind Speed Rain
28-Oct-2020 (Wed)
08:00:00 clear sky 18.510 18.510 20.550 27 0.49 m/h 0 %
11:00:00 clear sky 25.840 25.840 28.390 18 0.98 m/h 0 %
14:00:00 clear sky 30.300 30.300 31.240 13 1.87 m/h 0 %
17:00:00 clear sky 26.180 26.180 26.260 17 1.08 m/h 0 %
20:00:00 clear sky 21.930 21.930 21.930 21 0.99 m/h 0 %
23:00:00 clear sky 20.000 20.000 20.000 24 1.83 m/h 0 %
29-Oct-2020 (Thu)
02:00:00 clear sky 17.760 17.760 17.760 28 0.66 m/h 0 %
05:00:00 clear sky 16.770 16.770 16.770 30 1.08 m/h 0 %
08:00:00 clear sky 20.740 20.740 20.740 23 0.32 m/h 0 %
11:00:00 clear sky 28.240 28.240 28.240 15 1.35 m/h 0 %
14:00:00 clear sky 31.460 31.460 31.460 12 1.35 m/h 0 %
17:00:00 clear sky 26.420 26.420 26.420 16 1.13 m/h 0 %
20:00:00 clear sky 22.600 22.600 22.600 20 1.88 m/h 0 %
23:00:00 clear sky 20.200 20.200 20.200 24 2.31 m/h 0 %
30-Oct-2020 (Fri)
02:00:00 clear sky 18.290 18.290 18.290 27 1.9 m/h 0 %
05:00:00 clear sky 17.010 17.010 17.010 29 2.12 m/h 0 %
08:00:00 clear sky 21.000 21.000 21.000 23 2.4 m/h 0 %
11:00:00 clear sky 29.340 29.340 29.340 14 2.57 m/h 0 %
14:00:00 clear sky 32.180 32.180 32.180 11 2.83 m/h 0 %
17:00:00 clear sky 27.000 27.000 27.000 15 3.76 m/h 0 %
20:00:00 clear sky 20.520 20.520 20.520 22 3.15 m/h 0 %
23:00:00 clear sky 18.180 18.180 18.180 26 2.5 m/h 0 %
31-Oct-2020 (Sat)
02:00:00 clear sky 16.880 16.880 16.880 28 2.71 m/h 0 %
05:00:00 clear sky 15.620 15.620 15.620 30 2.15 m/h 0 %
08:00:00 clear sky 19.640 19.640 19.640 24 2.57 m/h 0 %
11:00:00 clear sky 28.360 28.360 28.360 14 2.71 m/h 0 %
14:00:00 clear sky 32.250 32.250 32.250 11 3.64 m/h 0 %
17:00:00 clear sky 26.580 26.580 26.580 15 3.77 m/h 0 %
20:00:00 clear sky 20.230 20.230 20.230 22 2.59 m/h 0 %
23:00:00 clear sky 18.440 18.440 18.440 24 2.2 m/h 0 %
01-Nov-2020 (Sun)
02:00:00 clear sky 16.760 16.760 16.760 27 1.99 m/h 0 %
05:00:00 clear sky 15.360 15.360 15.360 30 1.48 m/h 0 %
08:00:00 clear sky 19.600 19.600 19.600 24 1.01 m/h 0 %
11:00:00 clear sky 27.350 27.350 27.350 15 0.39 m/h 0 %
14:00:00 clear sky 30.720 30.720 30.720 12 1.28 m/h 0 %
17:00:00 clear sky 25.500 25.500 25.500 17 0.56 m/h 0 %
20:00:00 clear sky 21.440 21.440 21.440 21 1.28 m/h 0 %
23:00:00 clear sky 19.630 19.630 19.630 23 1.38 m/h 0 %
02-Nov-2020 (Mon)
02:00:00 clear sky 17.560 17.560 17.560 27 1.3 m/h 0 %
05:00:00 clear sky 16.150 16.150 16.150 31 0.96 m/h 0 %

Famous Cities (60)